sensor_id;sensor_type;location;lat;lon;timestamp;P1;durP1;ratioP1;P2;durP2;ratioP2
62861;SDS011;48953;53.110;5.592;2023-10-31T10:27:47;0.98;;;0.35;;
62861;SDS011;48953;53.110;5.592;2023-10-31T10:30:13;1.65;;;0.38;;
62861;SDS011;48953;53.110;5.592;2023-10-31T10:32:40;1.60;;;0.30;;
62861;SDS011;48953;53.110;5.592;2023-10-31T10:35:06;0.98;;;0.40;;
62861;SDS011;48953;53.110;5.592;2023-10-31T10:37:33;2.95;;;0.32;;
62861;SDS011;48953;53.110;5.592;2023-10-31T10:40:02;0.98;;;0.30;;
62861;SDS011;48953;53.110;5.592;2023-10-31T10:42:32;1.85;;;0.30;;
62861;SDS011;48953;53.110;5.592;2023-10-31T10:45:01;3.13;;;0.45;;
62861;SDS011;48953;53.110;5.592;2023-10-31T10:47:28;0.85;;;0.30;;
62861;SDS011;48953;53.110;5.592;2023-10-31T10:49:54;1.85;;;0.30;;
62861;SDS011;48953;53.110;5.592;2023-10-31T10:52:41;2.92;;;0.40;;
62861;SDS011;48953;53.110;5.592;2023-10-31T10:55:13;3.67;;;0.50;;
62861;SDS011;48953;53.110;5.592;2023-10-31T10:58:00;1.30;;;0.38;;
62861;SDS011;48953;53.110;5.592;2023-10-31T11:00:26;3.47;;;0.77;;
62861;SDS011;48953;53.110;5.592;2023-10-31T11:02:54;0.65;;;0.30;;
62861;SDS011;48953;53.110;5.592;2023-10-31T11:05:21;0.40;;;0.20;;
62861;SDS011;48953;53.110;5.592;2023-10-31T11:07:48;2.90;;;0.47;;
62861;SDS011;48953;53.110;5.592;2023-10-31T11:10:14;1.30;;;0.40;;
62861;SDS011;48953;53.110;5.592;2023-10-31T11:12:40;0.40;;;0.28;;
62861;SDS011;48953;53.110;5.592;2023-10-31T11:15:09;0.88;;;0.20;;
62861;SDS011;48953;53.110;5.592;2023-10-31T11:17:39;4.07;;;0.40;;
62861;SDS011;48953;53.110;5.592;2023-10-31T11:20:07;2.60;;;0.40;;
62861;SDS011;48953;53.110;5.592;2023-10-31T11:22:54;3.47;;;0.40;;
62861;SDS011;48953;53.110;5.592;2023-10-31T11:25:22;2.05;;;0.20;;
62861;SDS011;48953;53.110;5.592;2023-10-31T11:27:52;0.95;;;0.20;;
62861;SDS011;48953;53.110;5.592;2023-10-31T11:32:57;1.70;;;0.38;;
62861;SDS011;48953;53.110;5.592;2023-10-31T11:35:29;0.85;;;0.38;;
62861;SDS011;48953;53.110;5.592;2023-10-31T11:38:05;1.02;;;0.20;;
62861;SDS011;48953;53.110;5.592;2023-10-31T11:40:32;2.75;;;0.20;;
62861;SDS011;48953;53.110;5.592;2023-10-31T11:42:59;1.73;;;0.40;;
62861;SDS011;48953;53.110;5.592;2023-10-31T11:45:33;1.33;;;0.20;;
62861;SDS011;48953;53.110;5.592;2023-10-31T11:48:00;1.60;;;0.20;;
62861;SDS011;48953;53.110;5.592;2023-10-31T11:50:26;2.25;;;0.22;;
62861;SDS011;48953;53.110;5.592;2023-10-31T11:53:02;1.30;;;0.55;;
62861;SDS011;48953;53.110;5.592;2023-10-31T11:55:36;0.73;;;0.20;;
62861;SDS011;48953;53.110;5.592;2023-10-31T12:00:28;1.40;;;0.35;;
62861;SDS011;48953;53.110;5.592;2023-10-31T12:03:00;1.75;;;0.32;;
62861;SDS011;48953;53.110;5.592;2023-10-31T12:05:26;2.35;;;0.30;;
62861;SDS011;48953;53.110;5.592;2023-10-31T12:07:52;1.58;;;0.30;;
62861;SDS011;48953;53.110;5.592;2023-10-31T12:10:22;1.73;;;0.25;;
62861;SDS011;48953;53.110;5.592;2023-10-31T12:12:49;2.65;;;0.30;;
62861;SDS011;48953;53.110;5.592;2023-10-31T12:15:15;3.05;;;0.38;;
62861;SDS011;48953;53.110;5.592;2023-10-31T12:17:41;2.20;;;0.20;;
62861;SDS011;48953;53.110;5.592;2023-10-31T12:20:07;2.28;;;0.38;;
62861;SDS011;48953;53.110;5.592;2023-10-31T12:22:34;1.70;;;0.45;;
62861;SDS011;48953;53.110;5.592;2023-10-31T12:25:01;3.35;;;0.77;;
62861;SDS011;48953;53.110;5.592;2023-10-31T12:27:41;1.42;;;0.30;;
62861;SDS011;48953;53.110;5.592;2023-10-31T12:30:08;4.07;;;0.40;;
62861;SDS011;48953;53.110;5.592;2023-10-31T12:32:34;1.10;;;0.20;;
62861;SDS011;48953;53.110;5.592;2023-10-31T12:35:00;1.52;;;0.20;;
62861;SDS011;48953;53.110;5.592;2023-10-31T12:37:26;1.42;;;0.40;;
62861;SDS011;48953;53.110;5.592;2023-10-31T12:39:52;2.20;;;0.32;;
62861;SDS011;48953;53.110;5.592;2023-10-31T12:42:18;2.65;;;0.70;;
62861;SDS011;48953;53.110;5.592;2023-10-31T12:44:45;2.30;;;0.20;;
62861;SDS011;48953;53.110;5.592;2023-10-31T12:47:17;1.25;;;0.20;;
62861;SDS011;48953;53.110;5.592;2023-10-31T12:49:46;0.52;;;0.30;;
62861;SDS011;48953;53.110;5.592;2023-10-31T12:52:12;2.00;;;0.20;;
62861;SDS011;48953;53.110;5.592;2023-10-31T12:54:38;1.42;;;0.38;;
62861;SDS011;48953;53.110;5.592;2023-10-31T12:57:05;1.52;;;0.30;;
62861;SDS011;48953;53.110;5.592;2023-10-31T12:59:32;1.50;;;0.30;;
62861;SDS011;48953;53.110;5.592;2023-10-31T13:01:59;2.65;;;0.30;;
62861;SDS011;48953;53.110;5.592;2023-10-31T13:04:25;4.32;;;0.32;;
62861;SDS011;48953;53.110;5.592;2023-10-31T13:07:09;5.93;;;0.30;;
62861;SDS011;48953;53.110;5.592;2023-10-31T13:09:36;3.30;;;0.52;;
62861;SDS011;48953;53.110;5.592;2023-10-31T13:12:04;2.70;;;0.40;;
62861;SDS011;48953;53.110;5.592;2023-10-31T13:14:31;3.97;;;0.50;;
62861;SDS011;48953;53.110;5.592;2023-10-31T13:16:57;1.27;;;0.57;;
62861;SDS011;48953;53.110;5.592;2023-10-31T13:19:23;4.20;;;1.00;;
62861;SDS011;48953;53.110;5.592;2023-10-31T13:21:49;2.03;;;0.60;;
62861;SDS011;48953;53.110;5.592;2023-10-31T13:24:16;4.45;;;0.70;;
62861;SDS011;48953;53.110;5.592;2023-10-31T13:26:42;2.25;;;0.50;;
62861;SDS011;48953;53.110;5.592;2023-10-31T13:29:09;2.38;;;0.30;;
62861;SDS011;48953;53.110;5.592;2023-10-31T13:31:36;1.40;;;0.32;;
62861;SDS011;48953;53.110;5.592;2023-10-31T13:34:02;4.28;;;0.43;;
62861;SDS011;48953;53.110;5.592;2023-10-31T13:36:28;0.70;;;0.40;;
62861;SDS011;48953;53.110;5.592;2023-10-31T13:38:54;1.13;;;0.63;;
62861;SDS011;48953;53.110;5.592;2023-10-31T13:41:20;0.70;;;0.30;;
62861;SDS011;48953;53.110;5.592;2023-10-31T13:43:47;2.15;;;0.50;;
62861;SDS011;48953;53.110;5.592;2023-10-31T13:46:13;1.70;;;0.30;;
62861;SDS011;48953;53.110;5.592;2023-10-31T13:48:40;4.18;;;0.30;;
62861;SDS011;48953;53.110;5.592;2023-10-31T13:51:06;2.95;;;0.30;;
62861;SDS011;48953;53.110;5.592;2023-10-31T13:53:32;1.65;;;0.35;;
62861;SDS011;48953;53.110;5.592;2023-10-31T13:55:58;0.50;;;0.30;;
62861;SDS011;48953;53.110;5.592;2023-10-31T13:58:24;2.63;;;0.45;;
62861;SDS011;48953;53.110;5.592;2023-10-31T14:00:50;1.27;;;0.30;;
62861;SDS011;48953;53.110;5.592;2023-10-31T14:03:16;1.75;;;0.30;;
62861;SDS011;48953;53.110;5.592;2023-10-31T14:05:42;1.08;;;0.38;;
62861;SDS011;48953;53.110;5.592;2023-10-31T14:08:08;2.05;;;0.30;;
62861;SDS011;48953;53.110;5.592;2023-10-31T14:10:35;2.03;;;0.40;;
62861;SDS011;48953;53.110;5.592;2023-10-31T14:13:01;1.75;;;0.40;;
62861;SDS011;48953;53.110;5.592;2023-10-31T14:15:27;1.52;;;0.60;;
62861;SDS011;48953;53.110;5.592;2023-10-31T14:17:53;1.13;;;0.40;;
62861;SDS011;48953;53.110;5.592;2023-10-31T14:20:19;2.42;;;0.40;;
62861;SDS011;48953;53.110;5.592;2023-10-31T14:22:49;1.60;;;0.25;;
62861;SDS011;48953;53.110;5.592;2023-10-31T14:25:15;2.20;;;0.38;;
62861;SDS011;48953;53.110;5.592;2023-10-31T14:27:41;0.95;;;0.38;;
62861;SDS011;48953;53.110;5.592;2023-10-31T14:30:08;0.55;;;0.20;;
62861;SDS011;48953;53.110;5.592;2023-10-31T14:32:34;7.40;;;0.75;;
62861;SDS011;48953;53.110;5.592;2023-10-31T14:35:00;1.25;;;0.40;;
62861;SDS011;48953;53.110;5.592;2023-10-31T14:37:26;2.78;;;0.98;;
62861;SDS011;48953;53.110;5.592;2023-10-31T14:39:52;0.93;;;0.30;;
62861;SDS011;48953;53.110;5.592;2023-10-31T14:42:19;2.88;;;0.75;;
62861;SDS011;48953;53.110;5.592;2023-10-31T14:44:48;1.52;;;0.30;;
62861;SDS011;48953;53.110;5.592;2023-10-31T14:47:14;3.42;;;0.40;;
62861;SDS011;48953;53.110;5.592;2023-10-31T14:49:40;3.38;;;0.50;;
62861;SDS011;48953;53.110;5.592;2023-10-31T14:52:06;2.40;;;0.38;;
62861;SDS011;48953;53.110;5.592;2023-10-31T14:54:33;3.60;;;0.45;;
62861;SDS011;48953;53.110;5.592;2023-10-31T14:57:00;1.60;;;0.40;;
62861;SDS011;48953;53.110;5.592;2023-10-31T14:59:26;2.63;;;0.65;;
62861;SDS011;48953;53.110;5.592;2023-10-31T15:01:53;1.88;;;0.40;;
62861;SDS011;48953;53.110;5.592;2023-10-31T15:04:18;1.67;;;0.60;;
62861;SDS011;48953;53.110;5.592;2023-10-31T15:06:44;1.15;;;0.50;;
62861;SDS011;48953;53.110;5.592;2023-10-31T15:09:10;3.92;;;0.70;;
62861;SDS011;48953;53.110;5.592;2023-10-31T15:11:37;2.47;;;0.43;;
62861;SDS011;48953;53.110;5.592;2023-10-31T15:14:03;2.63;;;0.55;;
62861;SDS011;48953;53.110;5.592;2023-10-31T15:16:29;2.05;;;0.50;;
62861;SDS011;48953;53.110;5.592;2023-10-31T15:18:55;2.38;;;0.40;;
62861;SDS011;48953;53.110;5.592;2023-10-31T15:21:21;2.53;;;0.50;;
62861;SDS011;48953;53.110;5.592;2023-10-31T15:23:47;1.55;;;0.50;;
62861;SDS011;48953;53.110;5.592;2023-10-31T15:26:13;2.92;;;0.50;;
62861;SDS011;48953;53.110;5.592;2023-10-31T15:28:42;2.00;;;0.70;;
62861;SDS011;48953;53.110;5.592;2023-10-31T15:31:11;0.93;;;0.50;;
62861;SDS011;48953;53.110;5.592;2023-10-31T15:33:38;0.70;;;0.47;;
62861;SDS011;48953;53.110;5.592;2023-10-31T15:36:09;5.55;;;0.90;;
62861;SDS011;48953;53.110;5.592;2023-10-31T15:38:36;2.13;;;0.57;;
62861;SDS011;48953;53.110;5.592;2023-10-31T15:41:02;2.08;;;0.60;;
62861;SDS011;48953;53.110;5.592;2023-10-31T15:43:28;3.60;;;0.80;;
62861;SDS011;48953;53.110;5.592;2023-10-31T15:45:54;8.48;;;1.92;;
62861;SDS011;48953;53.110;5.592;2023-10-31T15:48:20;1.02;;;0.70;;
62861;SDS011;48953;53.110;5.592;2023-10-31T15:50:46;2.55;;;0.70;;
62861;SDS011;48953;53.110;5.592;2023-10-31T15:53:12;2.33;;;1.00;;
62861;SDS011;48953;53.110;5.592;2023-10-31T15:55:38;3.58;;;1.50;;
62861;SDS011;48953;53.110;5.592;2023-10-31T15:58:04;5.55;;;4.03;;
62861;SDS011;48953;53.110;5.592;2023-10-31T16:00:31;4.38;;;2.05;;
62861;SDS011;48953;53.110;5.592;2023-10-31T16:02:56;3.78;;;1.90;;
62861;SDS011;48953;53.110;5.592;2023-10-31T16:05:22;3.60;;;1.70;;
62861;SDS011;48953;53.110;5.592;2023-10-31T16:07:49;2.13;;;1.55;;
62861;SDS011;48953;53.110;5.592;2023-10-31T16:10:15;3.90;;;2.00;;
62861;SDS011;48953;53.110;5.592;2023-10-31T16:12:41;2.42;;;1.38;;
62861;SDS011;48953;53.110;5.592;2023-10-31T16:15:07;4.47;;;1.52;;
62861;SDS011;48953;53.110;5.592;2023-10-31T16:17:33;4.22;;;1.48;;
62861;SDS011;48953;53.110;5.592;2023-10-31T16:20:00;3.40;;;1.20;;
62861;SDS011;48953;53.110;5.592;2023-10-31T16:22:26;2.45;;;1.65;;
62861;SDS011;48953;53.110;5.592;2023-10-31T16:24:52;6.72;;;1.60;;
62861;SDS011;48953;53.110;5.592;2023-10-31T16:27:19;3.22;;;1.42;;
62861;SDS011;48953;53.110;5.592;2023-10-31T16:29:46;3.65;;;1.40;;
62861;SDS011;48953;53.110;5.592;2023-10-31T16:32:12;7.70;;;2.70;;
62861;SDS011;48953;53.110;5.592;2023-10-31T16:34:39;8.65;;;3.45;;
62861;SDS011;48953;53.110;5.592;2023-10-31T16:37:08;6.68;;;3.20;;
62861;SDS011;48953;53.110;5.592;2023-10-31T16:39:34;6.63;;;3.35;;
62861;SDS011;48953;53.110;5.592;2023-10-31T16:42:00;3.15;;;1.80;;
62861;SDS011;48953;53.110;5.592;2023-10-31T16:44:26;3.15;;;1.80;;
62861;SDS011;48953;53.110;5.592;2023-10-31T16:46:53;3.15;;;1.90;;
62861;SDS011;48953;53.110;5.592;2023-10-31T16:49:18;5.28;;;1.50;;
62861;SDS011;48953;53.110;5.592;2023-10-31T16:51:44;5.18;;;1.73;;
62861;SDS011;48953;53.110;5.592;2023-10-31T16:54:10;4.55;;;1.38;;
62861;SDS011;48953;53.110;5.592;2023-10-31T16:56:36;4.38;;;1.15;;
62861;SDS011;48953;53.110;5.592;2023-10-31T16:59:02;4.32;;;1.90;;
62861;SDS011;48953;53.110;5.592;2023-10-31T17:01:28;7.00;;;2.50;;
62861;SDS011;48953;53.110;5.592;2023-10-31T17:03:55;6.03;;;3.13;;
62861;SDS011;48953;53.110;5.592;2023-10-31T17:06:21;4.07;;;2.22;;
62861;SDS011;48953;53.110;5.592;2023-10-31T17:08:47;3.78;;;2.55;;
62861;SDS011;48953;53.110;5.592;2023-10-31T17:11:13;6.22;;;5.63;;
62861;SDS011;48953;53.110;5.592;2023-10-31T17:13:39;5.70;;;5.20;;
62861;SDS011;48953;53.110;5.592;2023-10-31T17:16:05;5.38;;;3.60;;
62861;SDS011;48953;53.110;5.592;2023-10-31T17:18:32;4.05;;;2.05;;
62861;SDS011;48953;53.110;5.592;2023-10-31T17:20:58;5.57;;;2.47;;
62861;SDS011;48953;53.110;5.592;2023-10-31T17:23:24;3.88;;;2.30;;
62861;SDS011;48953;53.110;5.592;2023-10-31T17:25:50;5.93;;;2.45;;
62861;SDS011;48953;53.110;5.592;2023-10-31T17:28:19;9.60;;;2.40;;
62861;SDS011;48953;53.110;5.592;2023-10-31T17:30:45;5.38;;;2.25;;
62861;SDS011;48953;53.110;5.592;2023-10-31T17:33:11;4.07;;;2.80;;
62861;SDS011;48953;53.110;5.592;2023-10-31T17:35:38;6.53;;;2.83;;
62861;SDS011;48953;53.110;5.592;2023-10-31T17:38:04;4.72;;;2.65;;
62861;SDS011;48953;53.110;5.592;2023-10-31T17:40:30;4.68;;;2.90;;
62861;SDS011;48953;53.110;5.592;2023-10-31T17:42:57;4.85;;;3.63;;
62861;SDS011;48953;53.110;5.592;2023-10-31T17:45:23;3.60;;;2.75;;
62861;SDS011;48953;53.110;5.592;2023-10-31T17:47:51;4.93;;;3.10;;
62861;SDS011;48953;53.110;5.592;2023-10-31T17:50:17;4.95;;;2.80;;
62861;SDS011;48953;53.110;5.592;2023-10-31T17:52:43;11.82;;;3.60;;
62861;SDS011;48953;53.110;5.592;2023-10-31T17:55:09;7.45;;;4.72;;
62861;SDS011;48953;53.110;5.592;2023-10-31T17:57:36;10.90;;;5.18;;
62861;SDS011;48953;53.110;5.592;2023-10-31T18:00:02;8.05;;;4.90;;
62861;SDS011;48953;53.110;5.592;2023-10-31T18:02:29;10.55;;;4.05;;
62861;SDS011;48953;53.110;5.592;2023-10-31T18:04:55;6.97;;;4.10;;
62861;SDS011;48953;53.110;5.592;2023-10-31T18:07:21;7.95;;;4.38;;
62861;SDS011;48953;53.110;5.592;2023-10-31T18:09:47;5.65;;;3.70;;
62861;SDS011;48953;53.110;5.592;2023-10-31T18:12:14;7.63;;;3.15;;
62861;SDS011;48953;53.110;5.592;2023-10-31T18:14:42;8.02;;;3.03;;
62861;SDS011;48953;53.110;5.592;2023-10-31T18:17:08;6.13;;;3.13;;
62861;SDS011;48953;53.110;5.592;2023-10-31T18:19:34;7.63;;;2.95;;
62861;SDS011;48953;53.110;5.592;2023-10-31T18:22:00;6.85;;;2.90;;
62861;SDS011;48953;53.110;5.592;2023-10-31T18:24:27;8.05;;;3.28;;
62861;SDS011;48953;53.110;5.592;2023-10-31T18:26:54;5.53;;;2.90;;
62861;SDS011;48953;53.110;5.592;2023-10-31T18:29:20;8.57;;;3.30;;
62861;SDS011;48953;53.110;5.592;2023-10-31T18:31:46;6.15;;;2.80;;
62861;SDS011;48953;53.110;5.592;2023-10-31T18:34:13;10.07;;;3.22;;
62861;SDS011;48953;53.110;5.592;2023-10-31T18:36:40;5.88;;;3.10;;
62861;SDS011;48953;53.110;5.592;2023-10-31T18:39:06;6.18;;;3.40;;
62861;SDS011;48953;53.110;5.592;2023-10-31T18:41:32;9.60;;;3.45;;
62861;SDS011;48953;53.110;5.592;2023-10-31T18:43:59;5.40;;;2.92;;
62861;SDS011;48953;53.110;5.592;2023-10-31T18:46:25;8.63;;;3.15;;
62861;SDS011;48953;53.110;5.592;2023-10-31T18:48:51;4.85;;;3.10;;
62861;SDS011;48953;53.110;5.592;2023-10-31T18:51:17;5.95;;;3.25;;
62861;SDS011;48953;53.110;5.592;2023-10-31T18:53:43;8.90;;;3.00;;
62861;SDS011;48953;53.110;5.592;2023-10-31T18:56:10;7.65;;;3.00;;
62861;SDS011;48953;53.110;5.592;2023-10-31T18:58:36;5.95;;;2.63;;
62861;SDS011;48953;53.110;5.592;2023-10-31T19:01:04;4.88;;;2.83;;
62861;SDS011;48953;53.110;5.592;2023-10-31T19:03:30;5.30;;;2.38;;
62861;SDS011;48953;53.110;5.592;2023-10-31T19:05:56;5.93;;;2.35;;
62861;SDS011;48953;53.110;5.592;2023-10-31T19:08:22;4.25;;;2.20;;
62861;SDS011;48953;53.110;5.592;2023-10-31T19:10:51;7.38;;;2.17;;
62861;SDS011;48953;53.110;5.592;2023-10-31T19:13:18;3.70;;;2.00;;
62861;SDS011;48953;53.110;5.592;2023-10-31T19:15:44;6.85;;;2.35;;
62861;SDS011;48953;53.110;5.592;2023-10-31T19:18:10;5.15;;;2.83;;
62861;SDS011;48953;53.110;5.592;2023-10-31T19:20:36;4.45;;;2.38;;
62861;SDS011;48953;53.110;5.592;2023-10-31T19:23:02;4.90;;;2.15;;
62861;SDS011;48953;53.110;5.592;2023-10-31T19:25:30;4.40;;;2.33;;
62861;SDS011;48953;53.110;5.592;2023-10-31T19:27:56;5.93;;;2.53;;
62861;SDS011;48953;53.110;5.592;2023-10-31T19:30:22;5.85;;;2.05;;
62861;SDS011;48953;53.110;5.592;2023-10-31T19:32:48;5.85;;;2.20;;
62861;SDS011;48953;53.110;5.592;2023-10-31T19:35:15;7.50;;;2.40;;
62861;SDS011;48953;53.110;5.592;2023-10-31T19:37:41;6.80;;;2.60;;
62861;SDS011;48953;53.110;5.592;2023-10-31T19:40:13;6.20;;;2.75;;
62861;SDS011;48953;53.110;5.592;2023-10-31T19:42:39;12.95;;;8.40;;
62861;SDS011;48953;53.110;5.592;2023-10-31T19:45:06;11.02;;;6.38;;
62861;SDS011;48953;53.110;5.592;2023-10-31T19:47:35;10.25;;;5.18;;
62861;SDS011;48953;53.110;5.592;2023-10-31T19:50:01;7.82;;;3.33;;
62861;SDS011;48953;53.110;5.592;2023-10-31T19:52:28;11.18;;;4.55;;
62861;SDS011;48953;53.110;5.592;2023-10-31T19:54:53;9.32;;;3.38;;
62861;SDS011;48953;53.110;5.592;2023-10-31T19:57:19;9.82;;;4.00;;
62861;SDS011;48953;53.110;5.592;2023-10-31T19:59:46;10.68;;;4.30;;
62861;SDS011;48953;53.110;5.592;2023-10-31T20:02:13;8.45;;;3.80;;
62861;SDS011;48953;53.110;5.592;2023-10-31T20:04:39;9.35;;;4.30;;
62861;SDS011;48953;53.110;5.592;2023-10-31T20:07:05;5.78;;;3.65;;
62861;SDS011;48953;53.110;5.592;2023-10-31T20:09:31;8.85;;;4.32;;
62861;SDS011;48953;53.110;5.592;2023-10-31T20:11:57;8.35;;;3.65;;
62861;SDS011;48953;53.110;5.592;2023-10-31T20:14:23;8.05;;;4.07;;
62861;SDS011;48953;53.110;5.592;2023-10-31T20:16:49;8.40;;;4.00;;
62861;SDS011;48953;53.110;5.592;2023-10-31T20:19:15;8.43;;;4.30;;
62861;SDS011;48953;53.110;5.592;2023-10-31T20:21:41;8.75;;;4.32;;
62861;SDS011;48953;53.110;5.592;2023-10-31T20:24:07;9.40;;;5.68;;
62861;SDS011;48953;53.110;5.592;2023-10-31T20:26:33;10.52;;;6.18;;
62861;SDS011;48953;53.110;5.592;2023-10-31T20:28:59;11.10;;;4.80;;
62861;SDS011;48953;53.110;5.592;2023-10-31T20:31:27;9.95;;;5.00;;
62861;SDS011;48953;53.110;5.592;2023-10-31T20:33:53;11.63;;;5.07;;
62861;SDS011;48953;53.110;5.592;2023-10-31T20:36:19;10.25;;;5.05;;
62861;SDS011;48953;53.110;5.592;2023-10-31T20:38:45;12.07;;;5.78;;
62861;SDS011;48953;53.110;5.592;2023-10-31T20:41:11;11.05;;;6.00;;
62861;SDS011;48953;53.110;5.592;2023-10-31T20:43:37;13.00;;;5.97;;
62861;SDS011;48953;53.110;5.592;2023-10-31T20:46:04;23.60;;;6.63;;
62861;SDS011;48953;53.110;5.592;2023-10-31T20:48:30;9.95;;;5.50;;
62861;SDS011;48953;53.110;5.592;2023-10-31T20:50:56;12.20;;;5.78;;
62861;SDS011;48953;53.110;5.592;2023-10-31T20:53:22;13.38;;;6.25;;
62861;SDS011;48953;53.110;5.592;2023-10-31T20:55:48;13.68;;;6.68;;
62861;SDS011;48953;53.110;5.592;2023-10-31T20:58:14;14.32;;;6.85;;
62861;SDS011;48953;53.110;5.592;2023-10-31T21:00:40;18.30;;;8.50;;
62861;SDS011;48953;53.110;5.592;2023-10-31T21:03:06;16.70;;;6.88;;
62861;SDS011;48953;53.110;5.592;2023-10-31T21:05:34;17.40;;;7.68;;
62861;SDS011;48953;53.110;5.592;2023-10-31T21:08:00;15.63;;;6.43;;
62861;SDS011;48953;53.110;5.592;2023-10-31T21:10:27;15.82;;;7.45;;
62861;SDS011;48953;53.110;5.592;2023-10-31T21:12:54;16.00;;;7.35;;
62861;SDS011;48953;53.110;5.592;2023-10-31T21:15:20;15.20;;;7.38;;
62861;SDS011;48953;53.110;5.592;2023-10-31T21:17:46;16.38;;;7.22;;
62861;SDS011;48953;53.110;5.592;2023-10-31T21:20:12;14.48;;;7.75;;
62861;SDS011;48953;53.110;5.592;2023-10-31T21:22:38;14.00;;;7.00;;
62861;SDS011;48953;53.110;5.592;2023-10-31T21:25:04;18.33;;;8.07;;
62861;SDS011;48953;53.110;5.592;2023-10-31T21:27:30;16.77;;;7.30;;
62861;SDS011;48953;53.110;5.592;2023-10-31T21:29:56;19.65;;;8.60;;
62861;SDS011;48953;53.110;5.592;2023-10-31T21:32:23;16.92;;;7.57;;
62861;SDS011;48953;53.110;5.592;2023-10-31T21:34:49;17.33;;;7.45;;
62861;SDS011;48953;53.110;5.592;2023-10-31T21:37:15;15.68;;;7.25;;
62861;SDS011;48953;53.110;5.592;2023-10-31T21:39:41;20.63;;;7.82;;
62861;SDS011;48953;53.110;5.592;2023-10-31T21:42:07;22.60;;;7.53;;
62861;SDS011;48953;53.110;5.592;2023-10-31T21:44:33;17.67;;;7.28;;
62861;SDS011;48953;53.110;5.592;2023-10-31T21:46:59;21.35;;;7.45;;
62861;SDS011;48953;53.110;5.592;2023-10-31T21:49:25;18.52;;;8.07;;
62861;SDS011;48953;53.110;5.592;2023-10-31T21:51:52;20.45;;;8.45;;
62861;SDS011;48953;53.110;5.592;2023-10-31T21:54:21;18.05;;;7.35;;
62861;SDS011;48953;53.110;5.592;2023-10-31T21:56:47;20.27;;;7.90;;
62861;SDS011;48953;53.110;5.592;2023-10-31T21:59:13;20.65;;;8.60;;
62861;SDS011;48953;53.110;5.592;2023-10-31T22:01:40;20.20;;;7.63;;
62861;SDS011;48953;53.110;5.592;2023-10-31T22:04:06;16.25;;;7.25;;
62861;SDS011;48953;53.110;5.592;2023-10-31T22:06:32;19.48;;;7.32;;
62861;SDS011;48953;53.110;5.592;2023-10-31T22:08:58;17.80;;;6.72;;
62861;SDS011;48953;53.110;5.592;2023-10-31T22:11:24;15.77;;;6.90;;
62861;SDS011;48953;53.110;5.592;2023-10-31T22:13:50;15.55;;;6.18;;
62861;SDS011;48953;53.110;5.592;2023-10-31T22:16:16;15.20;;;6.40;;
62861;SDS011;48953;53.110;5.592;2023-10-31T22:18:42;15.43;;;6.03;;
62861;SDS011;48953;53.110;5.592;2023-10-31T22:21:08;13.75;;;5.80;;
62861;SDS011;48953;53.110;5.592;2023-10-31T22:23:38;13.88;;;6.22;;
62861;SDS011;48953;53.110;5.592;2023-10-31T22:26:04;13.82;;;6.18;;
62861;SDS011;48953;53.110;5.592;2023-10-31T22:28:31;12.82;;;6.63;;
62861;SDS011;48953;53.110;5.592;2023-10-31T22:30:57;12.00;;;6.00;;
62861;SDS011;48953;53.110;5.592;2023-10-31T22:33:23;16.90;;;6.30;;
62861;SDS011;48953;53.110;5.592;2023-10-31T22:35:49;14.05;;;6.30;;
62861;SDS011;48953;53.110;5.592;2023-10-31T22:38:15;16.60;;;6.10;;
62861;SDS011;48953;53.110;5.592;2023-10-31T22:40:41;19.50;;;7.47;;
62861;SDS011;48953;53.110;5.592;2023-10-31T22:43:06;17.80;;;7.80;;
62861;SDS011;48953;53.110;5.592;2023-10-31T22:45:33;19.05;;;7.10;;
62861;SDS011;48953;53.110;5.592;2023-10-31T22:47:59;25.23;;;8.90;;
62861;SDS011;48953;53.110;5.592;2023-10-31T22:50:25;24.90;;;7.90;;
62861;SDS011;48953;53.110;5.592;2023-10-31T22:52:51;24.00;;;8.63;;
62861;SDS011;48953;53.110;5.592;2023-10-31T22:55:17;26.17;;;9.77;;
62861;SDS011;48953;53.110;5.592;2023-10-31T22:57:43;28.20;;;9.13;;
62861;SDS011;48953;53.110;5.592;2023-10-31T23:00:12;26.80;;;9.93;;
62861;SDS011;48953;53.110;5.592;2023-10-31T23:02:46;30.58;;;10.25;;
62861;SDS011;48953;53.110;5.592;2023-10-31T23:05:12;30.58;;;9.23;;
62861;SDS011;48953;53.110;5.592;2023-10-31T23:07:39;29.85;;;9.50;;
62861;SDS011;48953;53.110;5.592;2023-10-31T23:10:05;30.17;;;9.52;;
62861;SDS011;48953;53.110;5.592;2023-10-31T23:12:31;33.03;;;10.18;;
62861;SDS011;48953;53.110;5.592;2023-10-31T23:14:57;31.88;;;10.40;;
62861;SDS011;48953;53.110;5.592;2023-10-31T23:17:23;33.92;;;10.68;;
62861;SDS011;48953;53.110;5.592;2023-10-31T23:19:49;28.73;;;10.32;;
62861;SDS011;48953;53.110;5.592;2023-10-31T23:22:21;39.85;;;11.30;;
62861;SDS011;48953;53.110;5.592;2023-10-31T23:24:47;43.63;;;12.70;;
62861;SDS011;48953;53.110;5.592;2023-10-31T23:27:13;36.53;;;11.63;;
62861;SDS011;48953;53.110;5.592;2023-10-31T23:29:40;43.92;;;12.40;;
62861;SDS011;48953;53.110;5.592;2023-10-31T23:32:06;45.45;;;12.98;;
62861;SDS011;48953;53.110;5.592;2023-10-31T23:34:32;38.58;;;11.75;;
62861;SDS011;48953;53.110;5.592;2023-10-31T23:36:58;47.92;;;12.57;;
62861;SDS011;48953;53.110;5.592;2023-10-31T23:39:25;45.55;;;12.52;;
62861;SDS011;48953;53.110;5.592;2023-10-31T23:41:51;51.00;;;13.45;;
62861;SDS011;48953;53.110;5.592;2023-10-31T23:44:17;48.35;;;13.05;;
62861;SDS011;48953;53.110;5.592;2023-10-31T23:46:43;50.53;;;13.50;;
62861;SDS011;48953;53.110;5.592;2023-10-31T23:49:09;51.20;;;14.10;;
62861;SDS011;48953;53.110;5.592;2023-10-31T23:51:35;49.40;;;13.88;;
62861;SDS011;48953;53.110;5.592;2023-10-31T23:54:01;59.13;;;14.73;;
62861;SDS011;48953;53.110;5.592;2023-10-31T23:56:27;63.80;;;15.25;;
62861;SDS011;48953;53.110;5.592;2023-10-31T23:58:53;50.42;;;13.30;;
